Aérodrome :
LOGIN :

S'inscrire | Disclaimer

   EN    FR    IT 

 










Légende :    VFR   VFR Marginal   IFR   IFR Intensif   IFR Très Intensif
Visi : 
Plafond : 
>= 8 km
>= 3000ft
5 à 8 km
1000 à 3000 ft
1500m à 5 km
500 à 1000 ft
800 à 1500m
200 à 500 ft
< 800m
< 200 ft
Symboles :   Orages  Brouillard  Fortes neiges  Fortes précipitations  Vent > 20 kt
SIGMETs :   Divers  Orages  Givrage  Turbulence  Onde Orograph.  Cendres Volcan.







- Altitude de l'aérodrome : 74 ft
- Code IATA : EIN


EHEH - Eindhoven

METARs EXPIRÉS :
  • 241441Z AUTO 24010KT 200V270 9999 FEW012 SCT014 BKN017 18/16 Q1015 GRN 23013KT 9999 BKN016 OVC020 TEMPO 23014G24KT FEW008 BKN012 OVC015
  • 241425Z AUTO 24012KT 200V300 7000 HZ BKN016 OVC021 18/15 Q1015 WHT 23013KT 9999 BKN016 OVC020 TEMPO 23014G24KT FEW008 BKN012 OVC015
  • 241421Z AUTO 24012KT 200V300 7000 HZ FEW011 OVC018 18/15 Q1015 WHT 23013KT 9999 BKN016 OVC020 TEMPO 23014G24KT FEW008 BKN012 OVC015
  • 241355Z AUTO 24011KT 210V270 9999 OVC019 19/14 Q1015 WHT 23013KT 9999 BKN016 OVC020 TEMPO 23014G24KT FEW008 BKN012 OVC015
  • 241325Z AUTO 23010KT 190V290 9999 BKN019 OVC022 19/14 Q1015 WHT 23013KT 9999 BKN016 OVC020 TEMPO 23014G24KT FEW008 BKN012 OVC015
  • 241255Z AUTO 23012KT 200V270 9999 BKN015 OVC019 19/14 Q1015 WHT 23013KT 9999 BKN016 OVC020 TEMPO 23014G24KT FEW008 BKN012 OVC015
  • 241242Z AUTO 23013KT 190V280 9999 FEW014 BKN020 OVC024 19/15 Q1015 WHT 23013KT 9999 BKN016 OVC020 TEMPO 23014G24KT FEW008 BKN012 OVC015
  • 241225Z AUTO 23014KT 190V260 9999 FEW010 OVC020 19/14 Q1015 WHT 23013KT 9999 BKN016 OVC020 TEMPO 23014G24KT FEW008 BKN012 OVC015
  • 241155Z AUTO 24014KT 200V280 9999 BKN017 OVC021 19/14 Q1015 WHT 23013KT 9999 BKN016 OVC020 TEMPO 23014G24KT FEW008 BKN012 OVC015

Prévision TAF périmée.
Pas de NOTAMs connus pour ce terrain.



MET'MAP, la Météo Aéronautique d'un coup d'oeil ! - Copyright ORBIFLY Décembre 2007 - Disclaimer

ORBIFLY MET'MAP TEAM :

Programmation & Développement : Alexandra Zaïnal
Conception & Développement : Baudouin d'Aumeries
Co-Programmation & Développement : Marc-Olivier Méhu
Soutien technique & logistique : Manuel Goepfert

Contact : metmap@orbifly.com




SOURCES & CREDITS :

   NOAA